createdAt,value
2022-09-26T00:02:44.999Z,10.40
2022-09-26T00:07:46.627Z,5.47
2022-09-26T00:12:48.270Z,2.60
2022-09-26T00:17:49.841Z,2.45
2022-09-26T00:22:51.296Z,3.50
2022-09-26T00:27:52.808Z,3.70
2022-09-26T00:32:54.274Z,3.88
2022-09-26T00:37:55.889Z,5.00
2022-09-26T00:42:58.749Z,7.10
2022-09-26T00:48:06.518Z,4.22
2022-09-26T00:53:14.829Z,3.13
2022-09-26T00:58:23.871Z,3.45
2022-09-26T01:03:27.471Z,3.47
2022-09-26T01:08:34.107Z,8.93
2022-09-26T01:13:37.681Z,3.05
2022-09-26T01:18:39.710Z,4.35
2022-09-26T01:24:18.488Z,4.50
2022-09-26T01:29:39.263Z,5.45
2022-09-26T01:34:55.880Z,4.38
2022-09-26T01:40:10.493Z,3.63
2022-09-26T01:45:22.511Z,7.05
2022-09-26T01:50:29.422Z,5.28
2022-09-26T01:55:40.247Z,5.72
2022-09-26T02:00:45.042Z,6.85
2022-09-26T02:05:54.396Z,6.82
2022-09-26T02:11:06.561Z,5.00
2022-09-26T02:16:16.559Z,4.72
2022-09-26T02:21:22.041Z,4.60
2022-09-26T02:26:23.955Z,5.80
2022-09-26T02:31:29.952Z,5.03
2022-09-26T02:36:33.623Z,5.55
2022-09-26T02:41:50.781Z,4.72
2022-09-26T02:47:30.781Z,6.47
2022-09-26T02:52:44.860Z,5.30
2022-09-26T02:58:22.893Z,6.97
2022-09-26T03:03:35.661Z,6.75
2022-09-26T03:08:45.574Z,6.90
2022-09-26T03:13:47.496Z,6.05
2022-09-26T03:18:54.165Z,6.05
2022-09-26T03:23:58.438Z,5.77
2022-09-26T03:29:00.743Z,5.30
2022-09-26T03:34:05.050Z,6.95
2022-09-26T03:39:06.754Z,6.97
2022-09-26T03:44:19.362Z,5.55
2022-09-26T03:49:38.941Z,5.53
2022-09-26T03:54:40.787Z,10.63
2022-09-26T03:59:42.512Z,6.10
2022-09-26T04:04:45.463Z,8.02
2022-09-26T04:09:49.260Z,4.30
2022-09-26T04:14:51.993Z,5.65
2022-09-26T04:19:53.530Z,5.68
2022-09-26T04:24:55.327Z,6.63
2022-09-26T04:29:57.430Z,6.13
2022-09-26T04:35:15.207Z,6.60
2022-09-26T04:40:17.121Z,6.35
2022-09-26T04:45:31.417Z,8.35
2022-09-26T04:50:33.188Z,5.45
2022-09-26T04:55:46.659Z,4.75
2022-09-26T05:00:53.373Z,5.15
2022-09-26T05:06:13.128Z,5.28
2022-09-26T05:11:16.823Z,7.50
2022-09-26T05:16:19.317Z,3.20
2022-09-26T05:21:21.861Z,4.00
2022-09-26T05:26:28.698Z,7.43
2022-09-26T05:31:33.529Z,4.95
2022-09-26T05:36:35.187Z,2.78
2022-09-26T05:41:36.938Z,6.15
2022-09-26T05:46:39.212Z,3.03
2022-09-26T05:51:46.507Z,3.50
2022-09-26T05:56:51.442Z,4.75
2022-09-26T06:02:14.321Z,4.35
2022-09-26T06:07:41.464Z,4.68
2022-09-26T06:12:50.895Z,4.28
2022-09-26T06:18:00.584Z,2.67
2022-09-26T06:23:02.672Z,2.45
2022-09-26T06:28:04.237Z,5.43
2022-09-26T06:33:05.943Z,3.88
2022-09-26T06:38:26.118Z,2.72
2022-09-26T06:43:27.792Z,5.70
2022-09-26T06:49:04.564Z,5.90
2022-09-26T06:54:21.020Z,2.85
2022-09-26T06:59:23.293Z,3.63
2022-09-26T07:04:34.106Z,2.38
2022-09-26T07:09:51.560Z,1.95
2022-09-26T07:15:16.108Z,2.10
2022-09-26T07:20:20.440Z,3.40
2022-09-26T07:25:46.946Z,2.88
2022-09-26T07:30:48.987Z,8.20
2022-09-26T07:36:03.180Z,5.85
2022-09-26T07:41:10.427Z,2.63
2022-09-26T07:46:31.144Z,2.20
2022-09-26T07:51:34.077Z,2.65
2022-09-26T07:56:40.316Z,3.92
2022-09-26T08:02:22.184Z,1.48
2022-09-26T08:07:24.526Z,3.33
2022-09-26T08:12:37.746Z,1.60
2022-09-26T08:18:05.497Z,1.38
2022-09-26T08:23:07.032Z,3.22
2022-09-26T08:28:12.158Z,2.83
2022-09-26T08:33:14.380Z,2.05
2022-09-26T08:38:16.055Z,2.40
2022-09-26T08:43:35.882Z,1.90
2022-09-26T08:48:52.698Z,1.17
2022-09-26T08:54:29.833Z,4.10
2022-09-26T08:59:43.532Z,1.27
2022-09-26T09:05:15.080Z,1.50
2022-09-26T09:10:29.842Z,4.32
2022-09-26T09:16:09.433Z,6.63
2022-09-26T09:21:41.787Z,4.25
2022-09-26T09:33:05.319Z,3.85
2022-09-26T09:38:38.347Z,3.53
2022-09-26T09:44:10.905Z,1.05
2022-09-26T09:49:24.076Z,3.28
2022-09-26T09:54:52.433Z,1.67
2022-09-26T10:00:20.239Z,1.13
2022-09-26T10:05:45.307Z,1.17
2022-09-26T10:11:12.303Z,3.03
2022-09-26T10:16:33.289Z,1.40
2022-09-26T10:21:43.265Z,1.20
2022-09-26T10:26:47.095Z,2.05
2022-09-26T10:32:00.418Z,1.73
2022-09-26T10:37:24.687Z,2.00
2022-09-26T10:42:46.890Z,1.40
2022-09-26T10:47:51.294Z,2.97
2022-09-26T10:53:17.228Z,1.75
2022-09-26T10:58:23.956Z,1.70
2022-09-26T11:03:41.478Z,2.80
2022-09-26T11:09:06.616Z,1.65
2022-09-26T11:14:09.325Z,2.15
2022-09-26T11:19:23.325Z,1.33
2022-09-26T11:24:46.302Z,2.75
2022-09-26T11:29:58.126Z,1.20
2022-09-26T11:35:02.981Z,1.25
2022-09-26T11:40:19.895Z,6.25
2022-09-26T11:45:47.345Z,1.48
2022-09-26T11:51:38.005Z,1.50
2022-09-26T11:57:17.124Z,1.85
2022-09-26T12:02:40.402Z,1.10
2022-09-26T12:07:52.409Z,1.45
2022-09-26T12:13:13.503Z,2.38
2022-09-26T12:18:26.729Z,2.28
2022-09-26T12:23:41.189Z,1.67
2022-09-26T12:28:45.612Z,3.40
2022-09-26T12:34:10.359Z,1.25
2022-09-26T12:39:53.537Z,1.63
2022-09-26T12:45:17.272Z,4.18
2022-09-26T12:50:40.224Z,2.00
2022-09-26T12:56:16.184Z,1.48
2022-09-26T13:01:44.744Z,3.25
2022-09-26T13:07:23.568Z,3.17
2022-09-26T13:12:54.342Z,1.25
2022-09-26T13:18:01.190Z,2.72
2022-09-26T13:23:10.905Z,3.28
2022-09-26T13:28:33.707Z,1.42
2022-09-26T13:33:46.105Z,2.35
2022-09-26T13:39:10.396Z,1.90
2022-09-26T13:44:25.101Z,2.20
2022-09-26T13:49:43.984Z,2.47
2022-09-26T13:54:48.404Z,1.33
2022-09-26T13:59:54.218Z,1.35
2022-09-26T14:05:01.814Z,1.52
2022-09-26T14:10:20.035Z,1.67
2022-09-26T14:15:54.361Z,2.17
2022-09-26T14:21:12.388Z,1.30
2022-09-26T14:26:21.423Z,3.90
2022-09-26T14:31:26.214Z,3.90
2022-09-26T14:36:32.826Z,1.13
2022-09-26T14:41:36.209Z,3.53
2022-09-26T14:46:41.307Z,1.58
2022-09-26T14:51:48.701Z,2.10
2022-09-26T14:57:00.773Z,1.23
2022-09-26T15:02:14.548Z,1.83
2022-09-26T15:07:24.865Z,1.48
2022-09-26T15:12:39.295Z,2.42
2022-09-26T15:17:49.408Z,2.95
2022-09-26T15:22:56.934Z,2.33
2022-09-26T15:27:59.594Z,1.20
2022-09-26T15:33:05.933Z,2.45
2022-09-26T15:38:12.708Z,1.30
2022-09-26T15:43:21.972Z,2.55
2022-09-26T15:48:34.054Z,4.45
2022-09-26T15:53:40.557Z,1.67
2022-09-26T15:58:57.856Z,1.23
2022-09-26T16:04:13.339Z,2.05
2022-09-26T16:09:35.054Z,5.82
2022-09-26T16:14:46.841Z,3.50
2022-09-26T16:19:51.674Z,2.08
2022-09-26T16:24:53.344Z,1.95
2022-09-26T16:30:02.565Z,5.30
2022-09-26T16:35:17.313Z,1.90
2022-09-26T16:40:19.052Z,2.22
2022-09-26T16:45:20.818Z,1.45
2022-09-26T16:50:28.916Z,2.45
2022-09-26T16:55:34.119Z,1.60
2022-09-26T17:00:54.366Z,3.08
2022-09-26T17:05:57.912Z,2.75
2022-09-26T17:11:02.796Z,1.30
2022-09-26T17:16:05.766Z,2.22
2022-09-26T17:21:08.292Z,2.08
2022-09-26T17:26:21.458Z,2.28
2022-09-26T17:31:23.290Z,2.33
2022-09-26T17:36:28.026Z,2.53
2022-09-26T17:41:32.713Z,1.33
2022-09-26T17:46:38.285Z,2.53
2022-09-26T17:51:42.236Z,1.30
2022-09-26T17:56:43.861Z,1.45
2022-09-26T18:01:54.085Z,1.42
2022-09-26T18:07:00.540Z,1.17
2022-09-26T18:12:03.998Z,1.30
2022-09-26T18:17:06.631Z,2.08
2022-09-26T18:22:16.646Z,2.45
2022-09-26T18:27:18.541Z,2.03
2022-09-26T18:32:31.654Z,1.10
2022-09-26T18:37:33.300Z,1.63
2022-09-26T18:42:35.395Z,4.60
2022-09-26T18:47:41.832Z,1.45
2022-09-26T18:52:43.698Z,1.42
2022-09-26T18:58:03.888Z,1.52
2022-09-26T19:03:06.491Z,3.05
2022-09-26T19:08:35.152Z,3.22
2022-09-26T19:13:37.005Z,2.00
2022-09-26T19:18:40.665Z,2.92
2022-09-26T19:23:42.556Z,4.90
2022-09-26T19:28:44.173Z,1.75
2022-09-26T19:33:47.693Z,2.42
2022-09-26T19:38:49.360Z,4.13
2022-09-26T19:43:50.936Z,6.82
2022-09-26T19:48:52.755Z,2.88
2022-09-26T19:53:54.619Z,4.10
2022-09-26T19:58:56.953Z,2.05
2022-09-26T20:03:58.877Z,3.85
2022-09-26T20:09:02.094Z,2.00
2022-09-26T20:14:22.363Z,4.57
2022-09-26T20:19:48.436Z,3.83
2022-09-26T20:24:55.164Z,3.45
2022-09-26T20:30:15.943Z,3.72
2022-09-26T20:35:17.617Z,7.45
2022-09-26T20:40:22.608Z,6.70
2022-09-26T20:45:33.696Z,4.15
2022-09-26T20:50:38.425Z,7.07
2022-09-26T20:55:43.922Z,7.57
2022-09-26T21:00:47.092Z,7.30
2022-09-26T21:05:48.754Z,7.53
2022-09-26T21:10:50.306Z,9.00
2022-09-26T21:15:52.809Z,7.20
2022-09-26T21:20:56.905Z,5.82
2022-09-26T21:26:22.169Z,11.52
2022-09-26T21:31:35.195Z,7.15
2022-09-26T21:36:39.605Z,7.20
2022-09-26T21:41:41.140Z,7.00
2022-09-26T21:46:42.724Z,4.57
2022-09-26T21:51:49.987Z,6.72
2022-09-26T21:57:00.707Z,6.20
2022-09-26T22:02:02.299Z,6.97
2022-09-26T22:07:03.914Z,6.65
2022-09-26T22:12:05.649Z,8.57
2022-09-26T22:17:07.275Z,5.75
2022-09-26T22:22:09.400Z,8.15
2022-09-26T22:27:11.145Z,4.85
2022-09-26T22:32:13.754Z,4.55
2022-09-26T22:37:15.992Z,6.25
2022-09-26T22:42:17.574Z,4.15
2022-09-26T22:47:19.178Z,5.15
2022-09-26T22:52:20.757Z,3.45
2022-09-26T22:57:22.273Z,3.25
2022-09-26T23:02:23.869Z,3.70
2022-09-26T23:07:25.658Z,3.50
2022-09-26T23:12:27.522Z,7.85
2022-09-26T23:17:29.090Z,6.45
2022-09-26T23:22:30.651Z,4.45
2022-09-26T23:27:32.219Z,4.68
2022-09-26T23:32:33.774Z,4.45
2022-09-26T23:37:35.343Z,5.72
2022-09-26T23:42:37.058Z,5.97
2022-09-26T23:47:38.632Z,5.97
2022-09-26T23:52:40.235Z,3.92
2022-09-26T23:57:41.773Z,7.18
